Time;durP1;ratioP1;P1;durP2;ratioP2;P2;SDS_P1;SDS_P2;PMS_P1;PMS_P2;Temp;Humidity;BMP_temperature;BMP_pressure;BME280_temperature;BME280_humidity;BME280_pressure;Samples;Min_cycle;Max_cycle;Signal;HPM_P1;HPM_P2
2021/07/18 00:02:19;;;;;;;;;;;23.00;91.30;;;;;;5084117;28;19967;-77
2021/07/18 00:04:46;;;;;;;;;;;22.90;90.20;;;;;;5078270;28;19925;-76
2021/07/18 00:07:13;;;;;;;;;;;22.90;90.40;;;;;;5079928;28;19955;-77
2021/07/18 00:09:40;;;;;;;;;;;22.90;91.60;;;;;;5075667;28;19978;-76
2021/07/18 00:12:07;;;;;;;;;;;23.00;92.30;;;;;;5076045;27;20011;-76
2021/07/18 00:14:34;;;;;;;;;;;23.00;91.00;;;;;;5076946;28;19959;-76
2021/07/18 00:17:00;;;;;;;;;;;22.90;90.40;;;;;;5083693;28;20402;-77
2021/07/18 00:19:27;;;;;;;;;;;22.90;91.10;;;;;;5082335;28;19939;-77
2021/07/18 00:21:54;;;;;;;;;;;23.00;91.40;;;;;;5088878;28;20291;-76
2021/07/18 00:24:21;;;;;;;;;;;22.90;90.60;;;;;;5080666;28;20327;-76
2021/07/18 00:26:48;;;;;;;;;;;22.80;89.80;;;;;;5082860;28;19935;-76
2021/07/18 00:29:15;;;;;;;;;;;22.80;90.00;;;;;;5079321;28;20063;-68
2021/07/18 00:31:42;;;;;;;;;;;22.70;88.10;;;;;;5082431;28;19936;-69
2021/07/18 00:34:08;;;;;;;;;;;22.70;89.50;;;;;;5086770;28;19931;-68
2021/07/18 00:36:36;;;;;;;;;;;22.70;90.00;;;;;;5090902;28;19924;-69
2021/07/18 00:39:03;;;;;;;;;;;22.60;89.10;;;;;;5083536;28;19955;-68
2021/07/18 00:41:30;;;;;;;;;;;22.60;87.10;;;;;;5081556;28;19959;-68
2021/07/18 00:43:56;;;;;;;;;;;22.70;88.60;;;;;;5083595;28;20460;-68
2021/07/18 00:46:23;;;;;;;;;;;22.70;88.40;;;;;;5113175;27;20012;-69
2021/07/18 00:48:50;;;;;;;;;;;22.70;89.30;;;;;;5087857;28;19924;-69
2021/07/18 00:51:16;;;;;;;;;;;22.70;89.40;;;;;;5085799;28;20371;-70
2021/07/18 00:53:43;;;;;;;;;;;22.60;88.40;;;;;;5085021;28;20337;-68
2021/07/18 00:56:10;;;;;;;;;;;22.60;90.70;;;;;;5082388;28;20332;-68
2021/07/18 00:58:37;;;;;;;;;;;22.60;89.70;;;;;;5076356;28;19959;-69
2021/07/18 01:01:04;;;;;;;;;;;22.50;87.90;;;;;;5074914;28;19963;-68
2021/07/18 01:03:30;;;;;;;;;;;22.50;86.10;;;;;;5078008;28;19928;-68
2021/07/18 01:05:57;;;;;;;;;;;22.40;88.20;;;;;;5084387;28;20511;-68
2021/07/18 01:08:24;;;;;;;;;;;22.40;87.10;;;;;;5081908;28;20359;-66
2021/07/18 01:10:50;;;;;;;;;;;22.40;88.70;;;;;;5080377;28;19928;-66
2021/07/18 01:13:17;;;;;;;;;;;22.40;87.50;;;;;;5085100;28;20418;-65
2021/07/18 01:15:44;;;;;;;;;;;22.50;87.10;;;;;;5081658;28;19931;-66
2021/07/18 01:18:12;;;;;;;;;;;22.60;89.70;;;;;;5085558;28;19924;-66
2021/07/18 01:20:39;;;;;;;;;;;22.50;88.10;;;;;;5084748;28;19978;-66
2021/07/18 01:23:07;;;;;;;;;;;22.50;88.30;;;;;;5084015;28;19971;-67
2021/07/18 01:25:34;;;;;;;;;;;22.40;88.20;;;;;;5081385;28;20031;-67
2021/07/18 01:28:05;;;;;;;;;;;22.30;86.80;;;;;;5078564;28;19932;-67
2021/07/18 01:30:32;;;;;;;;;;;22.30;88.30;;;;;;5076734;27;19997;-67
2021/07/18 01:32:59;;;;;;;;;;;22.30;87.50;;;;;;5084210;28;19968;-66
2021/07/18 01:35:26;;;;;;;;;;;22.30;87.80;;;;;;5079628;28;19963;-68
2021/07/18 01:37:53;;;;;;;;;;;22.30;90.30;;;;;;5076988;28;20007;-67
2021/07/18 01:40:20;;;;;;;;;;;22.20;88.90;;;;;;5121369;27;20403;-67
2021/07/18 01:42:47;;;;;;;;;;;22.20;90.90;;;;;;5081782;28;19924;-68
2021/07/18 01:45:14;;;;;;;;;;;22.20;90.60;;;;;;5077392;28;20413;-67
2021/07/18 01:47:41;;;;;;;;;;;22.20;89.50;;;;;;5084865;27;20015;-69
2021/07/18 01:50:08;;;;;;;;;;;22.20;91.00;;;;;;5074747;28;19975;-67
2021/07/18 01:52:35;;;;;;;;;;;22.20;87.20;;;;;;5082731;28;19971;-67
2021/07/18 01:55:02;;;;;;;;;;;22.10;87.80;;;;;;5074092;28;19974;-67
2021/07/18 01:57:29;;;;;;;;;;;22.20;88.40;;;;;;5082796;28;21345;-67
2021/07/18 01:59:55;;;;;;;;;;;22.20;87.60;;;;;;5082299;28;19967;-67
2021/07/18 02:02:22;;;;;;;;;;;22.20;87.90;;;;;;5079982;27;20057;-67
2021/07/18 02:04:49;;;;;;;;;;;22.20;88.20;;;;;;5077607;28;19931;-67
2021/07/18 02:07:16;;;;;;;;;;;22.20;87.10;;;;;;5089087;28;19970;-68
2021/07/18 02:09:43;;;;;;;;;;;22.20;85.70;;;;;;5123722;27;19975;-67
2021/07/18 02:12:10;;;;;;;;;;;22.10;86.30;;;;;;5078819;28;19932;-69
2021/07/18 02:14:38;;;;;;;;;;;22.10;88.70;;;;;;5086197;28;19972;-68
2021/07/18 02:17:05;;;;;;;;;;;22.10;86.30;;;;;;5080566;28;20015;-67
2021/07/18 02:19:32;;;;;;;;;;;22.10;86.60;;;;;;5072792;28;20023;-68
2021/07/18 02:21:59;;;;;;;;;;;22.00;87.60;;;;;;5075779;28;20344;-68
2021/07/18 02:24:27;;;;;;;;;;;22.10;88.30;;;;;;5077369;28;20825;-69
2021/07/18 02:26:53;;;;;;;;;;;22.20;87.90;;;;;;5074712;28;20006;-67
2021/07/18 02:29:20;;;;;;;;;;;22.20;88.10;;;;;;5083466;28;20015;-66
2021/07/18 02:31:47;;;;;;;;;;;22.10;85.60;;;;;;5081460;28;19931;-67
2021/07/18 02:34:14;;;;;;;;;;;22.10;87.60;;;;;;5075476;28;19928;-67
2021/07/18 02:36:40;;;;;;;;;;;22.10;88.30;;;;;;5073814;28;19975;-67
2021/07/18 02:39:07;;;;;;;;;;;22.10;88.60;;;;;;5079978;28;20014;-67
2021/07/18 02:41:35;;;;;;;;;;;22.00;87.40;;;;;;5084359;28;20023;-67
2021/07/18 02:44:02;;;;;;;;;;;22.00;88.00;;;;;;5081144;28;19924;-67
2021/07/18 02:46:29;;;;;;;;;;;22.00;87.80;;;;;;5082795;28;19924;-67
2021/07/18 02:48:56;;;;;;;;;;;22.00;87.90;;;;;;5075569;28;19931;-67
2021/07/18 02:51:22;;;;;;;;;;;21.90;87.10;;;;;;5084770;27;20365;-67
2021/07/18 02:53:49;;;;;;;;;;;22.00;89.20;;;;;;5077243;28;19967;-67
2021/07/18 02:56:16;;;;;;;;;;;22.00;87.00;;;;;;5080882;28;20002;-67
2021/07/18 02:58:43;;;;;;;;;;;21.90;88.80;;;;;;5080332;28;20302;-67
2021/07/18 03:01:10;;;;;;;;;;;22.00;88.70;;;;;;5086963;28;19993;-67
2021/07/18 03:03:36;;;;;;;;;;;22.10;88.90;;;;;;5077074;28;19931;-67
2021/07/18 03:06:03;;;;;;;;;;;22.10;86.90;;;;;;5108836;27;20623;-67
2021/07/18 03:08:30;;;;;;;;;;;22.00;87.00;;;;;;5087143;28;19983;-67
2021/07/18 03:10:56;;;;;;;;;;;21.90;86.30;;;;;;5078287;28;19955;-75
2021/07/18 03:13:23;;;;;;;;;;;21.90;89.60;;;;;;5081610;28;19951;-75
2021/07/18 03:15:50;;;;;;;;;;;21.80;87.60;;;;;;5075964;28;19939;-73
2021/07/18 03:18:17;;;;;;;;;;;21.80;89.70;;;;;;5082886;28;20014;-75
2021/07/18 03:20:44;;;;;;;;;;;21.80;85.30;;;;;;5081420;28;20015;-75
2021/07/18 03:23:11;;;;;;;;;;;21.70;89.80;;;;;;5081817;28;20329;-74
2021/07/18 03:25:38;;;;;;;;;;;21.70;89.70;;;;;;5120678;27;19924;-74
2021/07/18 03:28:04;;;;;;;;;;;21.70;86.40;;;;;;5081330;28;20066;-75
2021/07/18 03:30:31;;;;;;;;;;;21.70;86.30;;;;;;5088656;28;19928;-74
2021/07/18 03:32:58;;;;;;;;;;;21.70;87.50;;;;;;5083377;28;20260;-74
2021/07/18 03:35:24;;;;;;;;;;;21.70;88.10;;;;;;5077014;28;19964;-75
2021/07/18 03:37:51;;;;;;;;;;;21.70;89.90;;;;;;5083494;27;20030;-75
2021/07/18 03:40:18;;;;;;;;;;;21.70;89.60;;;;;;5080759;28;19978;-75
2021/07/18 03:42:45;;;;;;;;;;;21.60;90.30;;;;;;5081136;28;19966;-75
2021/07/18 03:45:12;;;;;;;;;;;21.60;88.60;;;;;;5080214;28;20026;-75
2021/07/18 03:47:39;;;;;;;;;;;21.60;88.70;;;;;;5080939;28;19963;-75
2021/07/18 03:50:07;;;;;;;;;;;21.60;88.60;;;;;;5086097;28;20448;-76
2021/07/18 03:52:33;;;;;;;;;;;21.60;88.00;;;;;;5080708;28;19932;-75
2021/07/18 03:55:00;;;;;;;;;;;21.60;86.70;;;;;;5084059;27;20387;-76
2021/07/18 03:57:27;;;;;;;;;;;21.60;87.80;;;;;;5084091;28;20345;-76
2021/07/18 03:59:53;;;;;;;;;;;21.60;89.00;;;;;;5078819;28;19986;-75
2021/07/18 04:02:20;;;;;;;;;;;21.50;89.40;;;;;;5077355;28;20462;-74
2021/07/18 04:04:47;;;;;;;;;;;21.40;88.10;;;;;;5086289;28;19938;-75
2021/07/18 04:07:13;;;;;;;;;;;21.50;88.00;;;;;;5086742;28;19977;-75
2021/07/18 04:09:40;;;;;;;;;;;21.40;86.60;;;;;;5083596;28;20027;-75
2021/07/18 04:12:07;;;;;;;;;;;21.40;90.00;;;;;;5077980;28;20326;-75
2021/07/18 04:14:33;;;;;;;;;;;21.50;88.80;;;;;;5079469;28;20403;-75
2021/07/18 04:17:00;;;;;;;;;;;21.40;87.60;;;;;;5077742;28;20381;-67
2021/07/18 04:19:27;;;;;;;;;;;21.50;90.20;;;;;;5082374;28;20422;-67
2021/07/18 04:21:53;;;;;;;;;;;21.40;88.00;;;;;;5083055;28;19974;-66
2021/07/18 04:24:20;;;;;;;;;;;21.30;87.80;;;;;;5084229;28;20031;-67
2021/07/18 04:26:47;;;;;;;;;;;21.30;89.00;;;;;;5082052;28;20032;-67
2021/07/18 04:29:13;;;;;;;;;;;21.40;90.30;;;;;;5088729;28;19967;-68
2021/07/18 04:31:40;;;;;;;;;;;21.30;88.00;;;;;;5091350;28;19978;-67
2021/07/18 04:34:07;;;;;;;;;;;21.40;89.50;;;;;;5081181;28;19932;-67
2021/07/18 04:36:33;;;;;;;;;;;21.40;88.20;;;;;;5089204;28;19970;-67
2021/07/18 04:39:00;;;;;;;;;;;21.30;90.40;;;;;;5077913;28;20019;-66
2021/07/18 04:41:28;;;;;;;;;;;21.30;87.30;;;;;;5084189;27;20019;-67
2021/07/18 04:43:54;;;;;;;;;;;21.40;88.20;;;;;;5080997;28;19924;-68
2021/07/18 04:46:21;;;;;;;;;;;21.30;88.80;;;;;;5086795;28;20050;-66
2021/07/18 04:48:48;;;;;;;;;;;21.30;90.80;;;;;;5086551;28;20371;-69
2021/07/18 04:51:15;;;;;;;;;;;21.30;87.30;;;;;;5087151;28;19968;-67
2021/07/18 04:53:42;;;;;;;;;;;21.30;89.10;;;;;;5083757;28;19924;-67
2021/07/18 04:56:08;;;;;;;;;;;21.30;88.20;;;;;;5084718;27;19978;-67
2021/07/18 04:58:35;;;;;;;;;;;21.40;87.30;;;;;;5083347;28;20359;-67
2021/07/18 05:01:02;;;;;;;;;;;21.40;87.60;;;;;;5079737;28;19930;-68
2021/07/18 05:03:28;;;;;;;;;;;21.50;88.00;;;;;;5086302;28;19978;-67
2021/07/18 05:05:55;;;;;;;;;;;21.60;88.10;;;;;;5084425;28;20285;-67
2021/07/18 05:08:22;;;;;;;;;;;21.60;89.20;;;;;;5079300;28;20326;-67
2021/07/18 05:10:49;;;;;;;;;;;21.70;88.70;;;;;;5073504;28;19931;-68
2021/07/18 05:13:15;;;;;;;;;;;21.80;88.80;;;;;;5084050;28;20302;-67
2021/07/18 05:15:42;;;;;;;;;;;21.80;89.30;;;;;;5083106;28;20333;-67
2021/07/18 05:18:13;;;;;;;;;;;21.90;89.30;;;;;;5084664;28;20365;-66
2021/07/18 05:20:40;;;;;;;;;;;22.00;89.20;;;;;;5076762;28;20345;-68
2021/07/18 05:23:07;;;;;;;;;;;21.90;87.90;;;;;;5082470;28;19973;-66
2021/07/18 05:25:34;;;;;;;;;;;22.00;88.60;;;;;;5077367;28;20011;-75
2021/07/18 05:28:01;;;;;;;;;;;22.00;87.20;;;;;;5081786;27;19935;-73
2021/07/18 05:30:28;;;;;;;;;;;21.90;87.60;;;;;;5086728;28;19979;-74
2021/07/18 05:32:55;;;;;;;;;;;21.90;87.20;;;;;;5084301;28;20355;-76
2021/07/18 05:35:22;;;;;;;;;;;21.80;87.40;;;;;;5078185;28;20007;-75
2021/07/18 05:37:50;;;;;;;;;;;21.80;87.00;;;;;;5087118;28;20016;-75
2021/07/18 05:40:17;;;;;;;;;;;21.80;86.50;;;;;;5075466;28;19925;-75
2021/07/18 05:42:44;;;;;;;;;;;21.80;87.80;;;;;;5084745;28;20371;-75
2021/07/18 05:45:11;;;;;;;;;;;21.90;89.10;;;;;;5073717;28;19963;-75
2021/07/18 05:47:38;;;;;;;;;;;21.90;86.60;;;;;;5084755;28;19970;-67
2021/07/18 05:50:07;;;;;;;;;;;21.90;87.70;;;;;;5077426;28;20312;-67
2021/07/18 05:52:35;;;;;;;;;;;21.90;86.30;;;;;;5079508;28;19939;-67
2021/07/18 05:55:02;;;;;;;;;;;21.90;87.60;;;;;;5076810;28;20031;-67
2021/07/18 05:57:28;;;;;;;;;;;22.00;87.10;;;;;;5080674;28;19959;-69
2021/07/18 05:59:55;;;;;;;;;;;21.90;88.00;;;;;;5073952;28;20355;-67
2021/07/18 06:02:22;;;;;;;;;;;21.90;87.40;;;;;;5077972;28;19982;-66
2021/07/18 06:04:48;;;;;;;;;;;21.80;86.80;;;;;;5081335;28;19971;-68
2021/07/18 06:07:15;;;;;;;;;;;21.80;86.60;;;;;;5082420;28;20590;-67
2021/07/18 06:09:42;;;;;;;;;;;21.80;86.90;;;;;;5085411;28;20474;-67
2021/07/18 06:12:09;;;;;;;;;;;21.90;88.50;;;;;;5074088;28;19989;-66
2021/07/18 06:14:36;;;;;;;;;;;21.90;88.70;;;;;;5076676;28;20325;-67
2021/07/18 06:17:03;;;;;;;;;;;21.90;88.10;;;;;;5082371;28;19970;-75
2021/07/18 06:19:29;;;;;;;;;;;22.00;87.80;;;;;;5083736;28;19964;-75
2021/07/18 06:21:56;;;;;;;;;;;22.00;87.50;;;;;;5088594;28;19975;-75
2021/07/18 06:24:23;;;;;;;;;;;22.00;88.50;;;;;;5083996;28;19928;-75
2021/07/18 06:26:50;;;;;;;;;;;22.00;85.80;;;;;;5089720;28;19924;-75
2021/07/18 06:29:17;;;;;;;;;;;22.00;86.70;;;;;;5081024;28;20019;-75
2021/07/18 06:31:43;;;;;;;;;;;22.10;88.30;;;;;;5080929;27;20015;-76
2021/07/18 06:34:10;;;;;;;;;;;22.10;88.70;;;;;;5081483;28;20318;-67
2021/07/18 06:36:37;;;;;;;;;;;22.10;86.80;;;;;;5087255;28;19927;-67
2021/07/18 06:39:04;;;;;;;;;;;22.10;87.10;;;;;;5082994;28;19970;-68
2021/07/18 06:41:31;;;;;;;;;;;22.10;86.50;;;;;;5084880;28;20003;-67
2021/07/18 06:43:57;;;;;;;;;;;22.10;87.80;;;;;;5076090;28;20775;-67
2021/07/18 06:46:31;;;;;;;;;;;22.10;87.40;;;;;;5079769;28;19974;-67
2021/07/18 06:48:58;;;;;;;;;;;22.20;88.10;;;;;;5072719;28;20397;-68
2021/07/18 06:51:25;;;;;;;;;;;22.20;86.90;;;;;;5085239;28;19974;-67
2021/07/18 06:53:52;;;;;;;;;;;22.30;88.40;;;;;;5078069;28;19967;-66
2021/07/18 06:56:27;;;;;;;;;;;22.30;87.90;;;;;;5079306;28;19928;-67
2021/07/18 06:58:54;;;;;;;;;;;22.30;87.00;;;;;;5071411;28;20426;-67
2021/07/18 07:01:21;;;;;;;;;;;22.20;84.50;;;;;;5084888;28;20380;-67
2021/07/18 07:03:48;;;;;;;;;;;22.30;88.10;;;;;;5086106;28;19924;-73
2021/07/18 07:06:15;;;;;;;;;;;22.30;87.50;;;;;;5078793;28;20310;-74
2021/07/18 07:08:41;;;;;;;;;;;22.30;87.60;;;;;;5088706;28;19946;-74
2021/07/18 07:11:08;;;;;;;;;;;22.30;85.90;;;;;;5077342;28;19925;-75
2021/07/18 07:13:35;;;;;;;;;;;22.20;82.20;;;;;;5079566;28;20011;-75
2021/07/18 07:16:02;;;;;;;;;;;22.20;86.60;;;;;;5077902;28;20322;-74
2021/07/18 07:18:29;;;;;;;;;;;22.30;87.20;;;;;;5076621;28;19947;-74
2021/07/18 07:20:55;;;;;;;;;;;22.40;88.10;;;;;;5083060;28;20019;-75
2021/07/18 07:23:22;;;;;;;;;;;22.40;86.90;;;;;;5083994;28;19960;-74
2021/07/18 07:25:49;;;;;;;;;;;22.30;85.30;;;;;;5083562;28;20374;-74
2021/07/18 07:28:18;;;;;;;;;;;22.20;85.80;;;;;;5080761;28;20023;-74
2021/07/18 07:30:45;;;;;;;;;;;22.30;85.20;;;;;;5074782;28;20148;-75
2021/07/18 07:33:12;;;;;;;;;;;22.30;87.00;;;;;;5079854;28;19981;-74
2021/07/18 07:35:39;;;;;;;;;;;22.30;85.60;;;;;;5074700;28;20403;-75
2021/07/18 07:38:06;;;;;;;;;;;22.30;85.50;;;;;;5082076;28;19985;-75
2021/07/18 07:40:33;;;;;;;;;;;22.40;85.30;;;;;;5077576;28;19928;-75
2021/07/18 07:43:00;;;;;;;;;;;22.40;85.80;;;;;;5080439;28;19930;-75
2021/07/18 07:45:27;;;;;;;;;;;22.40;84.60;;;;;;5074267;28;20392;-73
2021/07/18 07:47:53;;;;;;;;;;;22.40;84.90;;;;;;5076648;28;19933;-75
2021/07/18 07:50:20;;;;;;;;;;;22.40;85.90;;;;;;5073959;28;20540;-75
2021/07/18 07:52:47;;;;;;;;;;;22.40;86.60;;;;;;5080550;28;19931;-67
2021/07/18 07:55:14;;;;;;;;;;;22.40;85.30;;;;;;5086948;28;19929;-67
2021/07/18 07:57:40;;;;;;;;;;;22.40;85.40;;;;;;5078877;28;19924;-69
2021/07/18 08:00:08;;;;;;;;;;;22.50;86.30;;;;;;5082147;28;19946;-67
2021/07/18 08:02:36;;;;;;;;;;;22.40;86.60;;;;;;5076236;28;20354;-67
2021/07/18 08:05:04;;;;;;;;;;;22.50;87.20;;;;;;5074942;28;19932;-69
2021/07/18 08:07:31;;;;;;;;;;;22.50;86.60;;;;;;5077251;28;19928;-66
2021/07/18 08:09:57;;;;;;;;;;;22.50;87.10;;;;;;5085746;28;20377;-66
2021/07/18 08:12:24;;;;;;;;;;;22.50;87.10;;;;;;5074804;28;20337;-66
2021/07/18 08:14:51;;;;;;;;;;;22.50;86.40;;;;;;5079759;28;20587;-67
2021/07/18 08:17:18;;;;;;;;;;;22.50;84.60;;;;;;5077182;28;20168;-67
2021/07/18 08:19:46;;;;;;;;;;;22.50;86.10;;;;;;5107505;27;19963;-67
2021/07/18 08:22:12;;;;;;;;;;;22.50;84.00;;;;;;5074936;28;19968;-66
2021/07/18 08:24:39;;;;;;;;;;;22.50;85.70;;;;;;5076446;28;19928;-66
2021/07/18 08:27:06;;;;;;;;;;;22.50;85.60;;;;;;5073147;28;19964;-66
2021/07/18 08:29:33;;;;;;;;;;;22.50;86.00;;;;;;5075952;28;20015;-66
2021/07/18 08:32:00;;;;;;;;;;;22.50;86.10;;;;;;5084468;28;19967;-65
2021/07/18 08:34:28;;;;;;;;;;;22.50;85.00;;;;;;5075357;28;19924;-66
2021/07/18 08:36:54;;;;;;;;;;;22.50;84.60;;;;;;5083725;28;19932;-66
2021/07/18 08:39:21;;;;;;;;;;;22.50;84.50;;;;;;5080333;28;20061;-67
2021/07/18 08:41:49;;;;;;;;;;;22.50;86.70;;;;;;5080753;28;20443;-65
2021/07/18 08:44:16;;;;;;;;;;;22.60;85.40;;;;;;5073401;28;20019;-65
2021/07/18 08:46:42;;;;;;;;;;;22.60;84.70;;;;;;5077091;28;19993;-65
2021/07/18 08:49:09;;;;;;;;;;;22.60;85.20;;;;;;5077354;28;19928;-65
2021/07/18 08:51:37;;;;;;;;;;;22.60;85.10;;;;;;5078938;28;20015;-65
2021/07/18 08:54:04;;;;;;;;;;;22.60;85.60;;;;;;5076466;28;19964;-65
2021/07/18 08:56:36;;;;;;;;;;;22.60;84.20;;;;;;5083434;28;20002;-65
2021/07/18 08:59:04;;;;;;;;;;;22.60;84.70;;;;;;5075473;28;20048;-67
2021/07/18 09:01:31;;;;;;;;;;;22.60;87.00;;;;;;5074807;28;20134;-67
2021/07/18 09:03:58;;;;;;;;;;;22.60;84.90;;;;;;5070474;28;19931;-68
2021/07/18 09:06:37;;;;;;;;;;;22.60;86.00;;;;;;5070780;28;19971;-66
2021/07/18 09:09:05;;;;;;;;;;;22.70;84.90;;;;;;5070866;28;20021;-67
2021/07/18 09:11:32;;;;;;;;;;;22.70;87.30;;;;;;5072759;28;20003;-68
2021/07/18 09:14:00;;;;;;;;;;;22.70;85.60;;;;;;5069542;28;19974;-67
2021/07/18 09:16:37;;;;;;;;;;;22.70;88.40;;;;;;5073678;28;19929;-68
2021/07/18 09:19:22;;;;;;;;;;;22.70;89.20;;;;;;5070705;28;19939;-69
2021/07/18 09:21:49;;;;;;;;;;;22.70;85.70;;;;;;5070549;28;22181;-68
2021/07/18 09:24:18;;;;;;;;;;;22.80;87.00;;;;;;5071803;28;19936;-74
2021/07/18 09:27:06;;;;;;;;;;;22.80;84.60;;;;;;5069917;28;21606;-74
2021/07/18 09:29:36;;;;;;;;;;;22.80;86.50;;;;;;5072238;28;20387;-75
2021/07/18 09:32:07;;;;;;;;;;;22.80;87.30;;;;;;5080085;28;19959;-75
2021/07/18 09:34:35;;;;;;;;;;;22.80;89.40;;;;;;5069104;28;19932;-73
2021/07/18 09:37:02;;;;;;;;;;;22.80;87.90;;;;;;5071269;28;19928;-74
2021/07/18 09:39:29;;;;;;;;;;;22.80;90.10;;;;;;5070223;28;19967;-73
2021/07/18 09:41:57;;;;;;;;;;;22.80;85.90;;;;;;5068922;28;19943;-70
2021/07/18 09:44:25;;;;;;;;;;;22.80;87.30;;;;;;5068874;27;19975;-72
2021/07/18 09:46:59;;;;;;;;;;;22.90;87.10;;;;;;5071388;28;20051;-67
2021/07/18 09:49:33;;;;;;;;;;;22.90;88.30;;;;;;5067881;28;19972;-66
2021/07/18 09:52:16;;;;;;;;;;;22.90;88.80;;;;;;5071774;28;19924;-68
2021/07/18 09:54:43;;;;;;;;;;;22.90;86.00;;;;;;5072307;28;19978;-69
2021/07/18 09:57:26;;;;;;;;;;;22.90;86.80;;;;;;5072682;28;19929;-67
2021/07/18 09:59:52;;;;;;;;;;;22.90;89.10;;;;;;5068636;27;20009;-69
2021/07/18 10:02:23;;;;;;;;;;;22.90;90.40;;;;;;5073956;28;20014;-69
2021/07/18 10:04:50;;;;;;;;;;;23.00;89.20;;;;;;5078528;28;19932;-66
2021/07/18 10:07:19;;;;;;;;;;;23.00;88.20;;;;;;5079412;28;19943;-67
2021/07/18 10:09:47;;;;;;;;;;;23.00;86.80;;;;;;5076328;28;20031;-69
2021/07/18 10:12:16;;;;;;;;;;;23.00;89.70;;;;;;5077160;28;19932;-68
2021/07/18 10:14:44;;;;;;;;;;;23.00;86.50;;;;;;5077903;27;20545;-67
2021/07/18 10:17:11;;;;;;;;;;;23.10;87.00;;;;;;5083152;28;19934;-69
2021/07/18 10:19:38;;;;;;;;;;;23.10;88.30;;;;;;5077590;28;19939;-70
2021/07/18 10:22:08;;;;;;;;;;;23.10;88.60;;;;;;5078760;28;20017;-70
2021/07/18 10:24:36;;;;;;;;;;;23.10;87.30;;;;;;5078497;28;19964;-68
2021/07/18 10:27:04;;;;;;;;;;;23.10;89.00;;;;;;5079220;28;20008;-69
2021/07/18 10:29:32;;;;;;;;;;;23.10;87.90;;;;;;5077661;28;19943;-70
2021/07/18 10:32:07;;;;;;;;;;;23.10;87.20;;;;;;5074905;28;20702;-70
2021/07/18 10:34:35;;;;;;;;;;;23.10;87.40;;;;;;5076516;28;20002;-70
2021/07/18 10:37:03;;;;;;;;;;;23.10;83.30;;;;;;5080460;28;20296;-70
2021/07/18 10:39:35;;;;;;;;;;;23.10;85.20;;;;;;5079044;28;19928;-70
2021/07/18 10:42:05;;;;;;;;;;;23.10;85.70;;;;;;5081361;28;19932;-70
2021/07/18 10:44:41;;;;;;;;;;;23.20;84.80;;;;;;5078827;28;19987;-69
2021/07/18 10:47:10;;;;;;;;;;;23.20;84.50;;;;;;5080706;28;19981;-70
2021/07/18 10:49:49;;;;;;;;;;;23.20;83.90;;;;;;5076270;28;19960;-71
2021/07/18 10:52:18;;;;;;;;;;;23.20;83.90;;;;;;5078570;28;19986;-68
2021/07/18 10:54:45;;;;;;;;;;;23.20;85.70;;;;;;5077182;28;19954;-68
2021/07/18 10:57:29;;;;;;;;;;;23.20;84.40;;;;;;5110381;27;19944;-69
2021/07/18 11:00:16;;;;;;;;;;;23.20;85.40;;;;;;5079672;28;19971;-70
2021/07/18 11:02:43;;;;;;;;;;;23.20;85.20;;;;;;5077672;27;19932;-69
2021/07/18 11:05:16;;;;;;;;;;;23.20;82.10;;;;;;5077008;28;19938;-70
2021/07/18 11:07:53;;;;;;;;;;;23.20;83.90;;;;;;5078871;28;19938;-69
2021/07/18 11:10:21;;;;;;;;;;;23.20;82.80;;;;;;5082403;28;19931;-68
2021/07/18 11:13:01;;;;;;;;;;;23.20;81.60;;;;;;5076943;28;19928;-70
2021/07/18 11:15:33;;;;;;;;;;;23.30;82.60;;;;;;5079364;28;19928;-68
2021/07/18 11:18:00;;;;;;;;;;;23.20;82.20;;;;;;5075405;27;20034;-68
2021/07/18 11:20:47;;;;;;;;;;;23.30;83.20;;;;;;5075810;28;19955;-70
2021/07/18 11:23:17;;;;;;;;;;;23.30;80.20;;;;;;5077247;28;20553;-68
2021/07/18 11:25:46;;;;;;;;;;;23.30;80.80;;;;;;5078489;28;19971;-68
2021/07/18 11:28:48;;;;;;;;;;;23.20;79.40;;;;;;5076571;28;20379;-69
2021/07/18 11:31:18;;;;;;;;;;;23.30;80.50;;;;;;5077937;28;19939;-69
2021/07/18 11:33:45;;;;;;;;;;;23.30;81.10;;;;;;5076318;27;19962;-69
2021/07/18 11:36:14;;;;;;;;;;;23.40;80.60;;;;;;5078095;28;19939;-69
2021/07/18 11:38:42;;;;;;;;;;;23.40;79.90;;;;;;5075500;28;19934;-68
2021/07/18 11:41:19;;;;;;;;;;;23.30;79.60;;;;;;5082900;28;19932;-69
2021/07/18 11:43:47;;;;;;;;;;;23.40;78.00;;;;;;5076752;28;19931;-69
2021/07/18 11:46:15;;;;;;;;;;;23.40;79.70;;;;;;5080226;28;20021;-69
2021/07/18 11:48:42;;;;;;;;;;;23.40;78.60;;;;;;5075204;28;19929;-68
2021/07/18 11:51:13;;;;;;;;;;;23.40;78.00;;;;;;5078203;28;19939;-69
2021/07/18 11:53:44;;;;;;;;;;;23.40;79.50;;;;;;5079244;28;20387;-69
2021/07/18 11:56:38;;;;;;;;;;;23.30;79.50;;;;;;5077828;28;20383;-68
2021/07/18 11:59:09;;;;;;;;;;;23.40;79.40;;;;;;5076070;28;19932;-68
2021/07/18 12:01:37;;;;;;;;;;;23.50;78.70;;;;;;5080913;28;19932;-69
2021/07/18 12:04:07;;;;;;;;;;;23.50;78.60;;;;;;5076830;28;19938;-71
2021/07/18 12:06:35;;;;;;;;;;;23.50;78.90;;;;;;5074032;28;20423;-71
2021/07/18 12:09:13;;;;;;;;;;;23.60;79.80;;;;;;5078687;28;19932;-69
2021/07/18 12:11:40;;;;;;;;;;;23.60;79.20;;;;;;5080845;28;19942;-69
2021/07/18 12:14:08;;;;;;;;;;;23.60;78.30;;;;;;5079431;28;20042;-70
2021/07/18 12:16:37;;;;;;;;;;;23.60;78.10;;;;;;5083468;28;20525;-69
2021/07/18 12:19:05;;;;;;;;;;;23.60;78.10;;;;;;5079144;28;20395;-69
2021/07/18 12:21:34;;;;;;;;;;;23.70;78.00;;;;;;5081303;28;20078;-69
2021/07/18 12:24:22;;;;;;;;;;;23.80;78.90;;;;;;5086641;28;20395;-69
2021/07/18 12:26:57;;;;;;;;;;;24.20;77.70;;;;;;5084061;28;19952;-69
2021/07/18 12:29:27;;;;;;;;;;;24.00;75.80;;;;;;5081234;28;19939;-70
2021/07/18 12:31:57;;;;;;;;;;;23.90;77.20;;;;;;5085481;28;19932;-68
2021/07/18 12:34:26;;;;;;;;;;;25.20;73.90;;;;;;5083464;28;20383;-69
2021/07/18 12:37:01;;;;;;;;;;;26.90;67.50;;;;;;5106408;27;19932;-69
2021/07/18 12:39:33;;;;;;;;;;;27.80;61.20;;;;;;5092258;28;19935;-70
2021/07/18 12:42:04;;;;;;;;;;;28.30;60.00;;;;;;5091469;28;20334;-70
2021/07/18 12:44:36;;;;;;;;;;;28.40;58.20;;;;;;5090924;28;19971;-68
2021/07/18 12:47:16;;;;;;;;;;;28.30;58.10;;;;;;5091026;28;19984;-69
2021/07/18 12:49:44;;;;;;;;;;;28.30;58.10;;;;;;5088925;28;20387;-69
2021/07/18 12:52:11;;;;;;;;;;;27.90;58.70;;;;;;5092045;28;20402;-69
2021/07/18 12:54:39;;;;;;;;;;;27.20;60.80;;;;;;5089813;28;20015;-70
2021/07/18 12:57:05;;;;;;;;;;;26.30;63.30;;;;;;5092771;28;19932;-68
2021/07/18 12:59:32;;;;;;;;;;;25.80;66.10;;;;;;5083552;28;19943;-69
2021/07/18 13:02:13;;;;;;;;;;;25.40;68.40;;;;;;5089758;28;19928;-69
2021/07/18 13:04:41;;;;;;;;;;;25.20;68.30;;;;;;5089347;28;19928;-69
2021/07/18 13:07:11;;;;;;;;;;;25.00;68.70;;;;;;5090963;28;19932;-69
2021/07/18 13:09:39;;;;;;;;;;;24.90;68.40;;;;;;5091812;28;19928;-72
2021/07/18 13:12:06;;;;;;;;;;;24.90;69.00;;;;;;5092908;28;19932;-73
2021/07/18 13:14:38;;;;;;;;;;;24.80;68.80;;;;;;5090567;28;19973;-73
2021/07/18 13:17:12;;;;;;;;;;;24.70;69.60;;;;;;5090416;28;20015;-73
2021/07/18 13:19:43;;;;;;;;;;;24.70;70.20;;;;;;5090415;28;20616;-72
2021/07/18 13:22:12;;;;;;;;;;;24.60;71.00;;;;;;5091133;28;20638;-71
2021/07/18 13:24:40;;;;;;;;;;;24.60;70.70;;;;;;5087548;28;19965;-72
2021/07/18 13:27:18;;;;;;;;;;;24.60;71.20;;;;;;5091199;28;19935;-72
2021/07/18 13:29:50;;;;;;;;;;;24.50;70.90;;;;;;5091048;28;19962;-72
2021/07/18 13:32:22;;;;;;;;;;;24.50;70.60;;;;;;5087449;28;20022;-71
2021/07/18 13:34:56;;;;;;;;;;;24.50;70.30;;;;;;5091769;28;19928;-72
2021/07/18 13:37:31;;;;;;;;;;;24.50;70.50;;;;;;5090881;28;19932;-71
2021/07/18 13:39:58;;;;;;;;;;;24.50;70.30;;;;;;5090900;28;20540;-71
2021/07/18 13:42:36;;;;;;;;;;;24.50;70.40;;;;;;5090357;28;19935;-71
2021/07/18 13:45:12;;;;;;;;;;;24.50;69.80;;;;;;5092418;28;19932;-73
2021/07/18 13:47:40;;;;;;;;;;;24.40;71.00;;;;;;5090109;27;20314;-72
2021/07/18 13:50:09;;;;;;;;;;;24.40;71.10;;;;;;5090441;28;20305;-72
2021/07/18 13:52:36;;;;;;;;;;;24.40;71.10;;;;;;5087909;28;19966;-73
2021/07/18 13:55:03;;;;;;;;;;;24.40;71.40;;;;;;5089617;28;19932;-72
2021/07/18 13:57:31;;;;;;;;;;;24.40;71.30;;;;;;5091905;28;19936;-72
2021/07/18 13:59:58;;;;;;;;;;;24.40;71.20;;;;;;5090754;28;19935;-72
2021/07/18 14:02:26;;;;;;;;;;;24.30;71.40;;;;;;5088143;28;19932;-72
2021/07/18 14:04:53;;;;;;;;;;;24.30;70.30;;;;;;5090523;28;19939;-72
2021/07/18 14:07:20;;;;;;;;;;;24.30;70.10;;;;;;5089988;28;19936;-72
2021/07/18 14:09:47;;;;;;;;;;;24.30;69.80;;;;;;5091567;28;19974;-72
2021/07/18 14:12:14;;;;;;;;;;;24.30;69.80;;;;;;5090623;28;20024;-72
2021/07/18 14:14:46;;;;;;;;;;;24.30;70.10;;;;;;5089973;28;19927;-72
2021/07/18 14:17:16;;;;;;;;;;;24.30;69.00;;;;;;5086528;28;19939;-72
2021/07/18 14:19:43;;;;;;;;;;;24.30;71.00;;;;;;5087471;28;19943;-71
2021/07/18 14:22:10;;;;;;;;;;;24.30;69.80;;;;;;5089066;28;20746;-72
2021/07/18 14:24:39;;;;;;;;;;;24.30;69.10;;;;;;5090299;28;20019;-71